Time;durP1;ratioP1;P1;durP2;ratioP2;P2;SDS_P1;SDS_P2;PMS_P1;PMS_P2;Temp;Humidity;BMP_temperature;BMP_pressure;BME280_temperature;BME280_humidity;BME280_pressure;Samples;Min_cycle;Max_cycle;Signal;HPM_P1;HPM_P2
2022/06/30 00:00:55;;;;;;;13.20;10.63;;;19.20;95.60;;;;;;5051258;28;20213;-62
2022/06/30 00:03:21;;;;;;;16.33;10.33;;;19.20;99.90;;;;;;5051741;28;20217;-63
2022/06/30 00:05:48;;;;;;;11.53;10.23;;;19.20;99.90;;;;;;5051203;28;20214;-63
2022/06/30 00:08:16;;;;;;;11.87;10.43;;;19.20;99.90;;;;;;5050975;28;20708;-62
2022/06/30 00:10:43;;;;;;;12.43;10.73;;;19.10;99.90;;;;;;5051274;28;20205;-62
2022/06/30 00:13:09;;;;;;;12.83;11.23;;;19.10;99.90;;;;;;5051395;28;20251;-62
2022/06/30 00:15:37;;;;;;;13.27;10.67;;;19.10;99.90;;;;;;5050990;28;20275;-62
2022/06/30 00:18:04;;;;;;;17.57;12.07;;;19.10;99.90;;;;;;5050958;28;20700;-62
2022/06/30 00:20:31;;;;;;;12.70;10.87;;;19.00;99.90;;;;;;5052315;28;20209;-62
2022/06/30 00:22:57;;;;;;;13.57;10.90;;;19.00;99.90;;;;;;5051317;28;20210;-62
2022/06/30 00:25:25;;;;;;;14.23;10.63;;;19.00;99.90;;;;;;5051527;28;20332;-61
2022/06/30 00:27:52;;;;;;;13.20;11.03;;;19.00;99.90;;;;;;5050734;28;20284;-63
2022/06/30 00:30:19;;;;;;;13.60;11.53;;;19.00;99.90;;;;;;5050920;28;20243;-62
2022/06/30 00:32:46;;;;;;;13.73;10.67;;;19.00;99.90;;;;;;5051248;28;20206;-62
2022/06/30 00:35:13;;;;;;;14.07;11.17;;;19.00;99.90;;;;;;5051255;28;20230;-63
2022/06/30 00:37:40;;;;;;;13.10;11.43;;;18.90;99.90;;;;;;5050359;28;20222;-62
2022/06/30 00:40:07;;;;;;;13.63;11.60;;;18.90;99.90;;;;;;5051430;28;20206;-62
2022/06/30 00:42:35;;;;;;;13.43;11.40;;;18.90;99.90;;;;;;5050796;28;20206;-62
2022/06/30 00:45:02;;;;;;;13.63;12.00;;;18.90;99.90;;;;;;5050878;28;20234;-62
2022/06/30 00:47:29;;;;;;;15.43;11.00;;;18.90;99.90;;;;;;5050831;28;20253;-63
2022/06/30 00:49:55;;;;;;;13.13;11.67;;;18.90;99.90;;;;;;5051723;28;20202;-63
2022/06/30 00:52:25;;;;;;;13.20;11.67;;;18.90;99.90;;;;;;5054396;28;20256;-62
2022/06/30 00:54:53;;;;;;;12.83;10.43;;;18.90;99.90;;;;;;5054393;28;20236;-62
2022/06/30 00:57:23;;;;;;;14.03;11.20;;;18.80;99.90;;;;;;5053971;28;20226;-62
2022/06/30 00:59:53;;;;;;;16.27;11.23;;;18.80;99.90;;;;;;5054373;28;20240;-63
2022/06/30 01:02:20;;;;;;;12.83;11.00;;;18.90;99.90;;;;;;5054658;28;20565;-62
2022/06/30 01:04:50;;;;;;;15.33;10.77;;;18.90;99.90;;;;;;5054299;28;20198;-63
2022/06/30 01:07:18;;;;;;;13.10;10.50;;;18.90;99.90;;;;;;5053898;28;20233;-62
2022/06/30 01:12:45;;;;;;;12.63;11.13;;;18.80;99.90;;;;;;5054338;28;20536;-62
2022/06/30 01:15:14;;;;;;;15.33;12.27;;;18.70;99.90;;;;;;5054255;28;20232;-62
2022/06/30 01:17:41;;;;;;;13.63;10.57;;;18.70;99.90;;;;;;5053721;28;20233;-62
2022/06/30 01:20:09;;;;;;;12.37;11.07;;;18.70;99.90;;;;;;5054103;28;20236;-63
2022/06/30 01:22:37;;;;;;;14.30;11.23;;;18.70;99.90;;;;;;5053989;28;20206;-62
2022/06/30 01:25:05;;;;;;;13.33;11.50;;;18.60;99.90;;;;;;5054034;28;20210;-62
2022/06/30 01:27:32;;;;;;;12.10;10.73;;;18.70;99.90;;;;;;5053543;28;20233;-62
2022/06/30 01:29:59;;;;;;;12.77;11.47;;;18.70;99.90;;;;;;5054038;28;20205;-63
2022/06/30 01:32:28;;;;;;;12.10;10.27;;;18.70;99.90;;;;;;5053705;28;20211;-62
2022/06/30 01:34:54;;;;;;;12.03;10.40;;;18.70;99.90;;;;;;5053504;28;20316;-63
2022/06/30 01:37:21;;;;;;;11.70;10.50;;;18.70;99.90;;;;;;5053348;28;20252;-62
2022/06/30 01:39:49;;;;;;;14.20;10.60;;;18.70;99.90;;;;;;5053817;28;20210;-62
2022/06/30 01:42:16;;;;;;;11.87;10.67;;;18.80;99.90;;;;;;5053530;28;20566;-62
2022/06/30 01:44:43;;;;;;;14.67;11.27;;;18.80;99.90;;;;;;5053754;28;20267;-62
2022/06/30 01:47:10;;;;;;;11.90;10.50;;;18.80;99.90;;;;;;5053157;28;20720;-62
2022/06/30 01:49:37;;;;;;;14.23;11.10;;;18.70;99.90;;;;;;5053693;28;20213;-63
2022/06/30 01:52:04;;;;;;;12.43;10.73;;;18.80;99.90;;;;;;5053632;28;20209;-62
2022/06/30 01:54:31;;;;;;;14.07;10.63;;;18.70;99.90;;;;;;5053313;28;20233;-61
2022/06/30 01:56:59;;;;;;;13.50;11.07;;;18.70;99.90;;;;;;5052931;28;20256;-62
2022/06/30 01:59:26;;;;;;;12.80;11.13;;;18.70;99.90;;;;;;5053070;28;20711;-62
2022/06/30 02:01:53;;;;;;;12.60;11.30;;;18.70;99.90;;;;;;5052933;28;20232;-62
2022/06/30 02:07:04;;;;;;;11.50;10.27;;;18.70;99.90;;;;;;5052839;28;20344;-62
2022/06/30 02:09:31;;;;;;;12.77;11.47;;;18.70;99.90;;;;;;5053226;28;20202;-63
2022/06/30 02:14:43;;;;;;;13.23;11.70;;;18.70;99.90;;;;;;5053029;28;20314;-62
2022/06/30 02:17:10;;;;;;;12.97;11.57;;;18.70;99.90;;;;;;5052774;28;20234;-62
2022/06/30 02:19:36;;;;;;;17.43;11.60;;;18.70;99.90;;;;;;5053066;28;20209;-63
2022/06/30 02:22:03;;;;;;;14.70;12.07;;;18.70;99.90;;;;;;5052631;28;20232;-62
2022/06/30 02:24:30;;;;;;;13.17;11.37;;;18.80;99.90;;;;;;5052863;28;20210;-62
2022/06/30 02:26:58;;;;;;;17.33;12.33;;;18.80;99.90;;;;;;5052543;28;20221;-63
2022/06/30 02:29:25;;;;;;;13.70;12.30;;;18.80;99.90;;;;;;5052824;28;20696;-63
2022/06/30 02:31:51;;;;;;;14.17;11.70;;;18.70;99.90;;;;;;5052987;28;20201;-63
2022/06/30 02:34:18;;;;;;;14.47;12.10;;;18.70;99.90;;;;;;5052632;28;20267;-62
2022/06/30 02:36:45;;;;;;;13.77;12.13;;;18.70;99.90;;;;;;5052026;28;20233;-63
2022/06/30 02:39:12;;;;;;;13.43;11.83;;;18.70;99.90;;;;;;5051938;28;20205;-63
2022/06/30 02:41:39;;;;;;;14.73;11.97;;;18.70;99.90;;;;;;5052365;28;20206;-62
2022/06/30 02:44:07;;;;;;;14.77;12.17;;;18.70;99.90;;;;;;5052771;28;20567;-63
2022/06/30 02:46:33;;;;;;;15.07;12.30;;;18.70;99.90;;;;;;5052303;28;20222;-63
2022/06/30 02:49:00;;;;;;;12.93;11.57;;;18.70;99.90;;;;;;5052348;28;20205;-63
2022/06/30 02:51:27;;;;;;;13.97;12.50;;;18.80;99.90;;;;;;5052418;28;20238;-63
2022/06/30 02:53:54;;;;;;;13.80;12.17;;;18.80;99.90;;;;;;5052166;28;20256;-63
2022/06/30 02:56:20;;;;;;;15.07;11.93;;;18.80;99.90;;;;;;5051931;28;20237;-63
2022/06/30 02:58:47;;;;;;;14.57;12.23;;;18.80;99.90;;;;;;5052275;28;20231;-63
2022/06/30 03:01:15;;;;;;;13.43;11.57;;;18.80;99.90;;;;;;5052330;28;20209;-63
2022/06/30 03:03:42;;;;;;;14.33;12.37;;;18.80;99.90;;;;;;5052124;28;20259;-63
2022/06/30 03:06:09;;;;;;;14.47;12.97;;;18.70;99.90;;;;;;5051682;28;20617;-63
2022/06/30 03:08:36;;;;;;;14.93;12.57;;;18.70;99.90;;;;;;5051908;28;20676;-64
2022/06/30 03:11:03;;;;;;;14.07;12.10;;;18.70;99.90;;;;;;5051904;28;20820;-63
2022/06/30 03:13:29;;;;;;;14.40;12.17;;;18.60;99.90;;;;;;5051511;28;20202;-62
2022/06/30 03:15:56;;;;;;;12.73;11.13;;;18.60;99.90;;;;;;5051563;28;20233;-63
2022/06/30 03:18:24;;;;;;;13.83;11.53;;;18.60;99.90;;;;;;5051874;28;20237;-63
2022/06/30 03:20:51;;;;;;;16.80;12.33;;;18.60;99.90;;;;;;5051726;28;20209;-63
2022/06/30 03:23:17;;;;;;;14.50;12.20;;;18.60;99.90;;;;;;5051747;28;20201;-63
2022/06/30 03:25:44;;;;;;;15.53;12.20;;;18.60;99.90;;;;;;5051821;28;20201;-63
2022/06/30 03:28:10;;;;;;;14.97;13.17;;;18.60;99.90;;;;;;5051479;28;20256;-63
2022/06/30 03:30:37;;;;;;;13.43;12.07;;;18.60;99.90;;;;;;5051376;28;20738;-63
2022/06/30 03:33:04;;;;;;;15.13;13.50;;;18.60;99.90;;;;;;5051682;28;20212;-63
2022/06/30 03:35:32;;;;;;;15.43;12.50;;;18.50;99.90;;;;;;5051396;28;20283;-63
2022/06/30 03:37:59;;;;;;;16.70;12.73;;;18.50;99.90;;;;;;5050917;28;20228;-63
2022/06/30 03:40:25;;;;;;;14.93;12.80;;;18.50;99.90;;;;;;5051828;28;20276;-63
2022/06/30 03:42:52;;;;;;;14.40;12.87;;;18.40;99.90;;;;;;5051483;28;20255;-63
2022/06/30 03:45:19;;;;;;;16.40;13.53;;;18.40;99.90;;;;;;5051921;28;20202;-63
2022/06/30 03:47:46;;;;;;;16.77;12.83;;;18.40;99.90;;;;;;5051117;28;20747;-63
2022/06/30 03:50:12;;;;;;;14.53;13.03;;;18.40;99.90;;;;;;5051419;28;20210;-63
2022/06/30 03:52:40;;;;;;;15.20;11.70;;;18.40;99.90;;;;;;5051727;28;20213;-63
2022/06/30 03:55:07;;;;;;;17.40;13.67;;;18.40;99.90;;;;;;5051699;28;20226;-63
2022/06/30 03:57:35;;;;;;;18.73;14.40;;;18.40;99.90;;;;;;5051075;28;20230;-62
2022/06/30 04:00:01;;;;;;;22.37;15.77;;;18.40;99.90;;;;;;5051704;28;20251;-63
2022/06/30 04:02:28;;;;;;;16.53;14.30;;;18.40;99.90;;;;;;5051489;28;20229;-62
2022/06/30 04:04:55;;;;;;;15.37;13.53;;;18.40;99.90;;;;;;5051079;28;20202;-63
2022/06/30 04:07:22;;;;;;;15.27;13.40;;;18.40;99.90;;;;;;5051289;28;20229;-63
2022/06/30 04:09:50;;;;;;;16.93;14.03;;;18.50;99.90;;;;;;5051474;28;20210;-62
2022/06/30 04:12:16;;;;;;;17.87;13.27;;;18.50;99.90;;;;;;5051264;28;20279;-63
2022/06/30 04:14:43;;;;;;;17.13;13.20;;;18.50;99.90;;;;;;5051143;28;20251;-63
2022/06/30 04:17:10;;;;;;;13.90;12.37;;;18.60;99.90;;;;;;5050697;28;20283;-63
2022/06/30 04:19:37;;;;;;;14.33;12.23;;;18.60;99.90;;;;;;5051350;28;20189;-63
2022/06/30 04:22:04;;;;;;;17.63;13.77;;;18.60;99.90;;;;;;5051175;28;20747;-63
2022/06/30 04:24:31;;;;;;;14.33;11.97;;;18.70;99.90;;;;;;5053163;28;20609;-63
2022/06/30 04:26:59;;;;;;;14.43;12.63;;;18.70;99.90;;;;;;5054960;28;20222;-63
2022/06/30 04:29:25;;;;;;;13.37;11.97;;;18.70;99.90;;;;;;5054953;28;20427;-63
2022/06/30 04:34:36;;;;;;;13.93;12.03;;;18.80;99.90;;;;;;5054856;28;20697;-63
2022/06/30 04:37:03;;;;;;;17.67;13.27;;;18.90;99.90;;;;;;5054475;28;20797;-62
2022/06/30 04:39:30;;;;;;;15.23;12.40;;;18.90;99.90;;;;;;5037376;28;20560;-62
2022/06/30 04:41:56;;;;;;;16.20;12.20;;;19.00;99.90;;;;;;5044819;28;20211;-62
2022/06/30 04:44:24;;;;;;;14.57;12.57;;;19.00;99.90;;;;;;5034462;28;20199;-62
2022/06/30 04:46:50;;;;;;;15.43;12.93;;;19.10;99.90;;;;;;5034281;28;20288;-62
2022/06/30 04:49:17;;;;;;;13.87;11.97;;;19.10;99.90;;;;;;5034962;28;20210;-62
2022/06/30 04:51:44;;;;;;;16.70;11.37;;;19.20;99.90;;;;;;5034639;28;20206;-62
2022/06/30 04:54:10;;;;;;;13.67;11.80;;;19.30;99.90;;;;;;5034466;28;20206;-62
2022/06/30 04:56:37;;;;;;;13.20;11.53;;;19.30;99.90;;;;;;5034168;28;20242;-62
2022/06/30 04:59:03;;;;;;;14.87;12.80;;;19.40;99.90;;;;;;5033943;28;20233;-62
2022/06/30 05:01:31;;;;;;;14.70;12.27;;;19.40;99.90;;;;;;5034642;28;20218;-62
2022/06/30 05:03:58;;;;;;;13.73;11.33;;;19.50;99.90;;;;;;5033846;28;20286;-62
2022/06/30 05:06:25;;;;;;;16.43;12.00;;;19.60;99.90;;;;;;5034021;28;20718;-63
2022/06/30 05:08:51;;;;;;;13.50;11.83;;;19.70;99.90;;;;;;5033915;28;20820;-62
2022/06/30 05:11:18;;;;;;;13.13;11.30;;;19.70;99.90;;;;;;5034259;28;20218;-62
2022/06/30 05:13:45;;;;;;;13.00;11.60;;;19.80;99.90;;;;;;5034156;28;20206;-62
2022/06/30 05:16:12;;;;;;;13.33;11.93;;;19.90;99.90;;;;;;5033015;28;20226;-62
2022/06/30 05:18:40;;;;;;;13.50;11.93;;;19.90;99.90;;;;;;5034140;28;20591;-62
2022/06/30 05:21:06;;;;;;;12.60;11.30;;;20.00;99.90;;;;;;5034626;28;20267;-62
2022/06/30 05:23:33;;;;;;;13.47;10.33;;;20.10;99.90;;;;;;5035647;28;20206;-64
2022/06/30 05:28:44;;;;;;;14.30;11.40;;;20.30;99.90;;;;;;5033562;28;20213;-69
2022/06/30 05:31:11;;;;;;;12.93;11.53;;;20.40;99.90;;;;;;5033293;28;20206;-64
2022/06/30 05:33:37;;;;;;;12.90;10.63;;;20.50;99.90;;;;;;5033474;28;20210;-65
2022/06/30 05:36:06;;;;;;;12.23;11.00;;;20.60;99.90;;;;;;5032343;28;20645;-66
2022/06/30 05:38:32;;;;;;;13.70;11.30;;;20.70;99.90;;;;;;5032911;28;20206;-62
2022/06/30 05:40:59;;;;;;;12.07;10.83;;;20.80;99.90;;;;;;5033548;28;20748;-66
2022/06/30 05:43:26;;;;;;;12.37;10.97;;;20.90;99.90;;;;;;5033238;28;20206;-65
2022/06/30 05:45:54;;;;;;;12.67;10.43;;;21.00;99.90;;;;;;5043978;28;20773;-62
2022/06/30 05:48:21;;;;;;;11.30;10.10;;;21.00;99.90;;;;;;5034272;28;20230;-62
2022/06/30 05:50:48;;;;;;;16.67;10.60;;;21.10;99.90;;;;;;5032888;28;20681;-65
2022/06/30 05:53:16;;;;;;;13.03;10.37;;;21.20;99.90;;;;;;5034654;28;20293;-68
2022/06/30 05:55:42;;;;;;;12.17;10.90;;;21.30;99.90;;;;;;5033781;28;20226;-66
2022/06/30 05:58:10;;;;;;;11.83;10.57;;;21.30;99.90;;;;;;5034498;28;20227;-66
2022/06/30 06:00:37;;;;;;;12.97;10.03;;;21.40;99.90;;;;;;5033483;28;20268;-66
2022/06/30 06:03:04;;;;;;;12.00;10.07;;;21.50;99.90;;;;;;5035199;28;20301;-66
2022/06/30 06:05:31;;;;;;;11.10;9.97;;;21.60;99.90;;;;;;5034116;28;20586;-66
2022/06/30 06:08:04;;;;;;;11.47;10.23;;;21.70;99.90;;;;;;5034150;28;21073;-64
2022/06/30 06:10:33;;;;;;;11.17;10.00;;;21.80;99.90;;;;;;5034501;28;20264;-68
2022/06/30 06:12:59;;;;;;;10.27;9.27;;;21.90;99.90;;;;;;5032577;28;20214;-66
2022/06/30 06:15:26;;;;;;;11.87;10.13;;;21.90;99.90;;;;;;5033202;28;20206;-67
2022/06/30 06:17:53;;;;;;;10.27;9.17;;;22.10;99.90;;;;;;5034590;28;20237;-66
2022/06/30 06:20:20;;;;;;;11.30;9.93;;;22.20;99.90;;;;;;5046961;28;20206;-66
2022/06/30 06:22:47;;;;;;;12.90;9.17;;;22.30;99.90;;;;;;5052620;28;20205;-65
2022/06/30 06:25:15;;;;;;;9.87;8.93;;;22.40;99.90;;;;;;5052561;28;20276;-65
2022/06/30 06:29:05;;;;;;;12.77;9.80;;;22.50;99.90;;;;;;5037555;28;20222;-63
2022/06/30 06:30:29;;;;;;;13.90;9.77;;;22.60;99.90;;;;;;5031647;28;20260;-64
2022/06/30 06:32:56;;;;;;;10.00;8.97;;;22.70;86.80;;;;;;5031926;28;20624;-63
2022/06/30 06:35:23;;;;;;;11.53;9.00;;;22.80;77.50;;;;;;5030634;28;20256;-63
2022/06/30 06:37:49;;;;;;;10.93;9.43;;;22.80;1.00;;;;;;5031531;28;20286;-65
2022/06/30 06:40:16;;;;;;;10.47;9.10;;;22.90;1.00;;;;;;5031862;28;20264;-64
2022/06/30 06:42:44;;;;;;;10.60;8.90;;;23.00;99.90;;;;;;5031632;28;20268;-65
2022/06/30 06:45:11;;;;;;;10.30;8.93;;;23.10;99.90;;;;;;5031752;28;20743;-64
2022/06/30 06:47:40;;;;;;;11.13;8.77;;;23.20;99.90;;;;;;5030084;28;20218;-65
2022/06/30 06:50:08;;;;;;;9.80;8.63;;;23.20;1.00;;;;;;5031693;28;20684;-64
2022/06/30 06:52:35;;;;;;;9.67;8.30;;;23.40;99.90;;;;;;5031285;28;20660;-64
2022/06/30 06:55:03;;;;;;;12.63;8.67;;;23.40;99.90;;;;;;5031976;28;20264;-63
2022/06/30 06:57:33;;;;;;;8.60;7.80;;;23.60;99.90;;;;;;5030621;28;20323;-67
2022/06/30 07:00:01;;;;;;;10.23;7.60;;;23.80;1.00;;;;;;5030989;28;20685;-67
2022/06/30 07:02:28;;;;;;;8.13;7.10;;;23.90;99.90;;;;;;5031949;28;20214;-67
2022/06/30 07:04:55;;;;;;;10.03;7.30;;;24.00;99.90;;;;;;5031518;28;20253;-66
2022/06/30 07:07:21;;;;;;;8.40;7.57;;;24.20;99.90;;;;;;5030982;28;20616;-66
2022/06/30 07:09:48;;;;;;;10.07;7.57;;;24.30;12.90;;;;;;5030590;28;20210;-65
2022/06/30 07:12:15;;;;;;;7.57;6.37;;;24.40;1.00;;;;;;5031459;28;20211;-62
2022/06/30 07:14:42;;;;;;;7.77;6.97;;;24.60;1.00;;;;;;5031232;28;20214;-62
2022/06/30 07:17:10;;;;;;;9.50;6.47;;;24.70;1.00;;;;;;5030750;28;20230;-62
2022/06/30 07:19:36;;;;;;;6.57;5.97;;;24.80;1.00;;;;;;5031347;28;20685;-62
2022/06/30 07:22:03;;;;;;;6.50;5.70;;;24.90;1.00;;;;;;5031214;28;20206;-62
2022/06/30 07:24:30;;;;;;;7.83;5.70;;;25.10;1.00;;;;;;5031518;28;20206;-61
2022/06/30 07:26:57;;;;;;;10.20;6.30;;;25.30;99.90;;;;;;5030227;28;20783;-61
2022/06/30 07:29:24;;;;;;;8.57;6.20;;;25.50;99.90;;;;;;5031173;28;20673;-62
2022/06/30 07:31:51;;;;;;;7.27;5.80;;;25.70;99.90;;;;;;5031263;28;20241;-62
2022/06/30 07:34:19;;;;;;;6.17;5.53;;;25.90;99.90;;;;;;5031021;28;20206;-61
2022/06/30 07:36:46;;;;;;;9.73;5.47;;;26.00;99.90;;;;;;5030485;28;20284;-61
2022/06/30 07:39:12;;;;;;;6.87;5.33;;;26.20;99.90;;;;;;5030660;28;20206;-62
2022/06/30 07:41:39;;;;;;;7.83;5.57;;;26.30;99.90;;;;;;5030455;28;20217;-67
2022/06/30 07:44:06;;;;;;;6.90;5.53;;;26.40;99.90;;;;;;5030700;28;20272;-63
2022/06/30 07:46:33;;;;;;;10.40;5.90;;;26.70;99.90;;;;;;5034688;28;20276;-66
2022/06/30 07:48:59;;;;;;;9.43;5.47;;;26.80;99.90;;;;;;5050903;28;20201;-66
2022/06/30 07:51:27;;;;;;;7.23;5.10;;;26.90;99.90;;;;;;5050563;28;20627;-65
2022/06/30 07:53:54;;;;;;;6.70;4.33;;;26.90;99.90;;;;;;5050806;28;20205;-66
2022/06/30 07:56:23;;;;;;;7.73;4.07;;;27.10;99.90;;;;;;5049779;28;20233;-64
2022/06/30 07:58:50;;;;;;;4.27;3.60;;;27.30;99.90;;;;;;5051480;28;20209;-61
2022/06/30 08:01:19;;;;;;;5.83;3.47;;;27.40;99.90;;;;;;5054704;28;20212;-61
2022/06/30 08:03:45;;;;;;;3.93;3.37;;;27.50;99.90;;;;;;5054908;28;20212;-62
2022/06/30 08:06:12;;;;;;;4.70;3.33;;;27.50;99.90;;;;;;5054572;28;20581;-67
2022/06/30 08:08:40;;;;;;;4.23;3.13;;;27.30;99.90;;;;;;5054138;28;20205;-67
2022/06/30 08:11:07;;;;;;;3.77;3.03;;;27.40;99.90;;;;;;5055261;28;20267;-62
2022/06/30 08:13:35;;;;;;;8.07;3.00;;;27.40;99.90;;;;;;5054436;28;20863;-67
2022/06/30 08:16:05;;;;;;;5.70;2.93;;;27.70;99.90;;;;;;5054321;28;20216;-66
2022/06/30 08:18:31;;;;;;;3.60;2.70;;;27.70;99.90;;;;;;5054847;28;20221;-64
2022/06/30 08:20:59;;;;;;;4.33;3.17;;;27.90;99.90;;;;;;5054075;28;20238;-65
2022/06/30 08:23:26;;;;;;;4.10;3.27;;;27.90;99.90;;;;;;5054559;28;20221;-66
2022/06/30 08:25:54;;;;;;;4.90;3.00;;;28.00;99.90;;;;;;5053937;28;20241;-65
2022/06/30 08:28:20;;;;;;;3.27;2.70;;;27.90;99.90;;;;;;5054318;28;20794;-64
2022/06/30 08:30:48;;;;;;;5.47;3.00;;;27.90;99.90;;;;;;5054095;28;20210;-63
2022/06/30 08:33:15;;;;;;;3.40;2.80;;;27.80;99.90;;;;;;5054114;28;20247;-64
2022/06/30 08:35:43;;;;;;;3.57;2.90;;;27.90;99.90;;;;;;5053391;28;20201;-66
2022/06/30 08:38:10;;;;;;;3.77;2.47;;;28.00;99.90;;;;;;5053535;28;20287;-66
2022/06/30 08:43:25;;;;;;;4.47;2.10;;;28.00;99.90;;;;;;5052847;28;20209;-62
2022/06/30 08:45:53;;;;;;;3.13;2.07;;;27.90;99.90;;;;;;5052716;28;20206;-65
2022/06/30 08:48:20;;;;;;;3.70;2.40;;;28.00;99.90;;;;;;5052214;28;20336;-66
2022/06/30 08:50:54;;;;;;;2.57;2.10;;;28.10;99.90;;;;;;5052905;28;20249;-66
2022/06/30 08:53:24;;;;;;;3.10;2.10;;;28.10;99.90;;;;;;5052943;28;20210;-68
2022/06/30 08:55:52;;;;;;;3.03;1.80;;;28.20;99.90;;;;;;5051718;28;20278;-67
2022/06/30 08:58:21;;;;;;;4.57;1.80;;;28.40;99.90;;;;;;5052214;28;20279;-67
2022/06/30 09:00:52;;;;;;;3.40;2.10;;;28.60;99.90;;;;;;5051071;28;20212;-64
2022/06/30 09:03:19;;;;;;;3.80;2.20;;;28.70;99.90;;;;;;5051707;28;20726;-62
2022/06/30 09:05:47;;;;;;;3.97;2.23;;;28.50;99.90;;;;;;5052453;28;20251;-62
2022/06/30 09:08:14;;;;;;;3.20;2.40;;;28.50;99.90;;;;;;5034157;28;20269;-62
2022/06/30 09:10:48;;;;;;;3.50;2.27;;;28.60;99.90;;;;;;5029604;28;20214;-62
2022/06/30 09:13:14;;;;;;;3.27;2.30;;;28.60;99.90;;;;;;5031628;28;20784;-62
2022/06/30 09:15:41;;;;;;;2.27;1.90;;;28.50;99.90;;;;;;5031763;28;20257;-67
2022/06/30 09:18:22;;;;;;;4.30;2.17;;;28.60;99.90;;;;;;5032813;28;20266;-67
2022/06/30 09:20:48;;;;;;;4.20;1.90;;;28.80;99.90;;;;;;5033339;28;20218;-67
2022/06/30 09:23:23;;;;;;;3.90;2.20;;;28.80;99.90;;;;;;5033509;28;20329;-67
2022/06/30 09:25:52;;;;;;;3.50;2.37;;;28.70;99.90;;;;;;5032763;28;20209;-67
2022/06/30 09:28:39;;;;;;;4.03;2.10;;;28.90;99.90;;;;;;5032537;28;20218;-66
2022/06/30 09:31:06;;;;;;;3.17;2.20;;;29.00;99.90;;;;;;5033131;28;20206;-63
2022/06/30 09:33:36;;;;;;;3.97;2.23;;;29.00;99.90;;;;;;5033060;28;20233;-62
2022/06/30 09:36:18;;;;;;;3.97;1.93;;;28.90;99.90;;;;;;5032375;28;20214;-63
2022/06/30 09:38:59;;;;;;;3.67;1.80;;;28.90;99.90;;;;;;5033453;28;20202;-62
2022/06/30 09:41:30;;;;;;;3.77;1.70;;;29.00;99.90;;;;;;5032993;28;20304;-62
2022/06/30 09:43:57;;;;;;;3.23;1.70;;;29.00;99.90;;;;;;5033173;28;20202;-65
2022/06/30 09:46:24;;;;;;;4.10;1.70;;;29.00;99.90;;;;;;5032114;28;20272;-65
2022/06/30 09:48:52;;;;;;;4.55;1.50;;;28.90;99.90;;;;;;5032921;28;20233;-65
2022/06/30 09:51:19;;;;;;;3.30;1.60;;;29.10;99.90;;;;;;5032844;28;20206;-67
2022/06/30 09:54:08;;;;;;;3.05;2.28;;;29.20;99.90;;;;;;5032675;28;20672;-67
2022/06/30 09:56:35;;;;;;;2.50;1.75;;;29.20;99.90;;;;;;5031763;28;20720;-62
2022/06/30 09:59:05;;;;;;;2.83;1.80;;;29.30;99.90;;;;;;5032459;28;20567;-64
2022/06/30 10:01:50;;;;;;;3.15;2.30;;;29.30;99.90;;;;;;5032834;28;20261;-65
2022/06/30 10:04:18;;;;;;;4.70;2.20;;;29.30;99.90;;;;;;5032484;28;20246;-65
2022/06/30 10:06:46;;;;;;;4.25;2.30;;;29.30;99.90;;;;;;5037969;28;20218;-61
2022/06/30 10:09:16;;;;;;;6.38;2.20;;;29.30;99.90;;;;;;5052330;28;20667;-65
2022/06/30 10:11:43;;;;;;;2.13;1.70;;;29.10;99.90;;;;;;5053082;28;20292;-65
2022/06/30 10:14:12;;;;;;;2.97;2.10;;;29.00;99.90;;;;;;5052484;28;20212;-66
2022/06/30 10:16:40;;;;;;;3.13;2.23;;;28.70;99.90;;;;;;5051687;28;20261;-66
2022/06/30 10:19:09;;;;;;;6.33;2.50;;;28.80;99.90;;;;;;5052732;28;20263;-62
2022/06/30 10:21:38;;;;;;;2.60;1.90;;;28.90;99.90;;;;;;5052597;28;20233;-62
2022/06/30 10:24:06;;;;;;;3.83;1.60;;;28.90;99.90;;;;;;5052220;28;20993;-62
2022/06/30 10:29:19;;;;;;;4.45;1.60;;;29.30;99.90;;;;;;5052453;28;20711;-65
2022/06/30 10:31:51;;;;;;;3.05;1.40;;;29.30;99.90;;;;;;5051600;28;20722;-65
2022/06/30 10:34:24;;;;;;;3.25;1.85;;;29.20;99.90;;;;;;5051909;28;20213;-64
2022/06/30 10:37:11;;;;;;;3.65;1.75;;;29.00;99.90;;;;;;5051186;28;20225;-63
2022/06/30 10:39:47;;;;;;;2.67;1.75;;;29.20;99.90;;;;;;5051385;28;20303;-63
2022/06/30 10:42:41;;;;;;;4.15;1.80;;;29.30;99.90;;;;;;5051640;28;20725;-63
2022/06/30 10:45:53;;;;;;;2.43;1.87;;;28.80;99.90;;;;;;5052226;28;20210;-63
2022/06/30 10:48:20;;;;;;;2.70;2.10;;;28.90;99.90;;;;;;5051396;28;20275;-65
2022/06/30 10:50:47;;;;;;;3.50;1.73;;;29.10;99.90;;;;;;5051587;28;20213;-65
2022/06/30 10:53:19;;;;;;;4.03;2.08;;;29.30;99.90;;;;;;5051513;28;20263;-64
2022/06/30 10:55:54;;;;;;;4.72;2.00;;;29.30;99.90;;;;;;5051133;28;20297;-65
2022/06/30 10:58:22;;;;;;;3.35;1.90;;;29.60;99.90;;;;;;5051224;28;20256;-66
2022/06/30 11:01:02;;;;;;;5.68;2.03;;;29.70;99.90;;;;;;5051272;28;20205;-67
2022/06/30 11:04:00;;;;;;;3.10;1.92;;;29.80;99.90;;;;;;5050641;28;20687;-64
2022/06/30 11:07:11;;;;;;;4.03;1.70;;;29.60;99.90;;;;;;5050626;28;20712;-65
2022/06/30 11:10:16;;;;;;;5.57;1.77;;;29.40;99.90;;;;;;5051515;28;20213;-64
2022/06/30 11:13:00;;;;;;;6.90;1.98;;;29.60;99.90;;;;;;5051322;28;20577;-65
2022/06/30 11:15:49;;;;;;;2.53;1.70;;;29.70;99.90;;;;;;5051839;28;20209;-68
2022/06/30 11:18:16;;;;;;;2.75;1.52;;;29.90;99.90;;;;;;5050837;28;20234;-67
2022/06/30 11:20:43;;;;;;;4.50;1.85;;;29.90;99.90;;;;;;5051369;28;20206;-64
2022/06/30 11:23:11;;;;;;;3.90;1.80;;;29.20;99.90;;;;;;5050810;28;20751;-67
2022/06/30 11:28:28;;;;;;;4.37;1.93;;;29.40;99.90;;;;;;5051029;28;20220;-63
2022/06/30 11:30:54;;;;;;;2.80;1.52;;;29.60;99.90;;;;;;5051130;28;20255;-63
2022/06/30 11:33:21;;;;;;;4.30;1.60;;;29.50;99.90;;;;;;5050575;28;20699;-64
2022/06/30 11:36:00;;;;;;;2.58;1.80;;;29.60;99.90;;;;;;5050664;28;20275;-63
2022/06/30 11:38:27;;;;;;;4.80;1.90;;;29.70;99.90;;;;;;5050959;28;20229;-63
2022/06/30 11:41:54;;;;;;;3.22;1.60;;;29.80;99.90;;;;;;5050733;28;20217;-64
2022/06/30 11:43:42;;;;;;;3.47;1.27;;;29.50;99.90;;;;;;5051053;28;20206;-64
2022/06/30 11:46:09;;;;;;;4.47;1.77;;;29.60;99.90;;;;;;5051424;28;20217;-67
2022/06/30 11:48:37;;;;;;;4.45;1.67;;;29.60;99.90;;;;;;5051297;28;20205;-64
2022/06/30 11:51:03;;;;;;;4.72;1.52;;;29.70;99.90;;;;;;5051075;28;20618;-66
2022/06/30 11:53:31;;;;;;;3.65;2.10;;;29.60;99.90;;;;;;5050160;28;20209;-65
2022/06/30 11:55:59;;;;;;;3.78;1.73;;;29.70;99.90;;;;;;5050464;28;20699;-64
2022/06/30 11:58:29;;;;;;;2.05;1.75;;;29.70;99.90;;;;;;5050655;28;20256;-65
2022/06/30 12:00:56;;;;;;;3.53;1.83;;;30.00;99.90;;;;;;5050933;28;20304;-64
2022/06/30 12:03:22;;;;;;;2.47;1.60;;;29.80;99.90;;;;;;5050675;28;20205;-64
2022/06/30 12:05:53;;;;;;;2.85;1.63;;;30.00;99.90;;;;;;5050593;28;20209;-63
2022/06/30 12:08:21;;;;;;;3.13;1.55;;;30.10;99.90;;;;;;5050226;28;20642;-64
2022/06/30 12:10:48;;;;;;;2.70;1.70;;;30.40;99.90;;;;;;5050491;28;20249;-66
2022/06/30 12:13:18;;;;;;;2.20;1.90;;;30.30;99.90;;;;;;5050847;28;20216;-64
2022/06/30 12:15:44;;;;;;;2.72;2.00;;;30.20;99.90;;;;;;5050178;28;20279;-64
2022/06/30 12:18:12;;;;;;;4.53;1.75;;;29.80;99.90;;;;;;5050521;28;20230;-66
2022/06/30 12:20:41;;;;;;;2.92;1.90;;;29.90;99.90;;;;;;5050429;28;20847;-67
2022/06/30 12:23:08;;;;;;;3.28;1.88;;;30.10;99.90;;;;;;5050470;28;20202;-67
2022/06/30 12:25:35;;;;;;;1.80;1.67;;;29.40;99.90;;;;;;5050505;28;20202;-66
2022/06/30 12:28:03;;;;;;;2.80;2.00;;;29.50;99.90;;;;;;5049244;28;20276;-66
2022/06/30 12:30:36;;;;;;;2.42;1.75;;;29.80;99.90;;;;;;5050604;28;20216;-66
2022/06/30 12:33:05;;;;;;;2.20;1.63;;;30.00;99.90;;;;;;5050484;28;20237;-64
2022/06/30 12:35:33;;;;;;;3.17;2.00;;;30.10;99.90;;;;;;5050568;28;20589;-66
2022/06/30 12:38:11;;;;;;;4.82;2.05;;;29.80;99.90;;;;;;5049510;28;20311;-66
2022/06/30 12:40:40;;;;;;;5.00;1.83;;;29.50;99.90;;;;;;5050359;28;20284;-65
2022/06/30 12:43:08;;;;;;;2.60;1.90;;;29.40;99.90;;;;;;5050186;28;20211;-66
2022/06/30 12:45:43;;;;;;;4.00;2.10;;;29.20;99.90;;;;;;5040471;28;20289;-70
2022/06/30 12:48:10;;;;;;;4.83;2.20;;;29.10;99.90;;;;;;5034797;28;20225;-66
2022/06/30 12:50:39;;;;;;;4.13;1.90;;;28.80;99.90;;;;;;5034863;28;20210;-66
2022/06/30 12:53:20;;;;;;;3.70;2.00;;;28.80;99.90;;;;;;5034966;28;20618;-68
2022/06/30 12:55:58;;;;;;;3.07;1.60;;;28.80;99.90;;;;;;5033042;28;20737;-63
2022/06/30 12:58:25;;;;;;;3.80;2.20;;;28.60;99.90;;;;;;5034035;28;20241;-63
2022/06/30 13:00:58;;;;;;;3.83;1.97;;;28.60;99.90;;;;;;5033833;28;20257;-65
2022/06/30 13:03:25;;;;;;;4.30;2.40;;;28.40;99.90;;;;;;5033530;28;20669;-67
2022/06/30 13:05:51;;;;;;;3.13;2.20;;;28.40;99.90;;;;;;5031227;28;20696;-66
2022/06/30 13:08:18;;;;;;;4.07;2.30;;;28.50;99.90;;;;;;5033175;28;20218;-66